createdAt,value
2018-05-01T00:02:25.425Z,15.00
2018-05-01T00:04:52.919Z,15.10
2018-05-01T00:07:20.342Z,14.60
2018-05-01T00:09:47.857Z,14.40
2018-05-01T00:12:15.252Z,15.20
2018-05-01T00:14:42.745Z,14.50
2018-05-01T00:17:10.201Z,13.40
2018-05-01T00:19:37.653Z,14.00
2018-05-01T00:22:05.107Z,14.00
2018-05-01T00:24:32.541Z,14.40
2018-05-01T00:27:00.019Z,13.70
2018-05-01T00:29:27.457Z,13.70
2018-05-01T00:31:54.946Z,14.00
2018-05-01T00:34:22.395Z,13.70
2018-05-01T00:36:49.801Z,13.50
2018-05-01T00:39:17.230Z,13.30
2018-05-01T00:41:44.662Z,13.10
2018-05-01T00:44:12.098Z,13.10
2018-05-01T00:46:39.669Z,13.50
2018-05-01T00:49:07.098Z,13.60
2018-05-01T00:51:34.665Z,13.90
2018-05-01T00:54:02.015Z,14.40
2018-05-01T00:56:29.430Z,14.60
2018-05-01T00:58:56.861Z,13.20
2018-05-01T01:01:24.407Z,12.90
2018-05-01T01:03:51.866Z,13.30
2018-05-01T01:06:19.285Z,13.50
2018-05-01T01:08:46.711Z,13.50
2018-05-01T01:11:14.147Z,13.40
2018-05-01T01:13:41.680Z,13.20
2018-05-01T01:16:09.116Z,13.40
2018-05-01T01:18:36.528Z,13.80
2018-05-01T01:21:03.971Z,13.70
2018-05-01T01:23:31.388Z,13.20
2018-05-01T01:25:58.836Z,13.30
2018-05-01T01:28:26.249Z,13.30
2018-05-01T01:30:53.881Z,13.50
2018-05-01T01:33:21.310Z,13.70
2018-05-01T01:35:48.244Z,13.90
2018-05-01T01:38:15.945Z,14.30
2018-05-01T01:40:43.085Z,14.20
2018-05-01T01:43:10.126Z,14.40
2018-05-01T01:45:37.085Z,14.40
2018-05-01T01:48:04.110Z,14.10
2018-05-01T01:50:31.070Z,14.60
2018-05-01T01:52:58.009Z,14.60
2018-05-01T01:55:25.070Z,15.00
2018-05-01T01:57:52.218Z,15.50
2018-05-01T02:00:19.164Z,15.70
2018-05-01T02:02:46.219Z,16.10
2018-05-01T02:05:13.351Z,16.10
2018-05-01T02:07:40.499Z,16.50
2018-05-01T02:10:07.458Z,16.70
2018-05-01T02:12:34.376Z,17.00
2018-05-01T02:15:01.330Z,17.20
2018-05-01T02:17:28.254Z,17.30
2018-05-01T02:19:55.195Z,17.40
2018-05-01T02:22:22.178Z,17.50
2018-05-01T02:24:49.123Z,17.70
2018-05-01T02:27:16.047Z,17.40
2018-05-01T02:29:43.010Z,17.60
2018-05-01T02:32:09.933Z,17.60
2018-05-01T02:34:36.999Z,17.70
2018-05-01T02:37:03.917Z,17.30
2018-05-01T02:39:30.978Z,17.20
2018-05-01T02:41:57.913Z,17.30
2018-05-01T02:44:24.975Z,17.30
2018-05-01T02:46:52.133Z,17.20
2018-05-01T02:49:19.281Z,17.40
2018-05-01T02:51:46.374Z,16.90
2018-05-01T02:54:13.378Z,16.90
2018-05-01T02:56:40.418Z,17.20
2018-05-01T02:59:07.574Z,17.60
2018-05-01T03:01:34.519Z,17.10
2018-05-01T03:04:01.445Z,17.20
2018-05-01T03:06:28.706Z,16.90
2018-05-01T03:08:55.643Z,17.20
2018-05-01T03:11:22.594Z,17.20
2018-05-01T03:13:49.593Z,17.40
2018-05-01T03:16:16.559Z,17.40
2018-05-01T03:18:43.523Z,17.40
2018-05-01T03:21:10.682Z,17.80
2018-05-01T03:23:37.615Z,17.90
2018-05-01T03:26:04.560Z,18.00
2018-05-01T03:28:31.507Z,18.20
2018-05-01T03:30:58.449Z,18.20
2018-05-01T03:33:25.506Z,18.20
2018-05-01T03:35:52.441Z,18.20
2018-05-01T03:38:19.500Z,18.30
2018-05-01T03:40:46.441Z,18.10
2018-05-01T03:43:13.483Z,18.20
2018-05-01T03:45:40.658Z,18.20
2018-05-01T03:48:07.590Z,18.20
2018-05-01T03:50:34.534Z,18.20
2018-05-01T03:53:01.767Z,18.20
2018-05-01T03:55:28.715Z,18.00
2018-05-01T03:57:55.779Z,18.00
2018-05-01T04:00:22.935Z,17.60
2018-05-01T04:02:50.066Z,17.70
2018-05-01T04:05:17.013Z,17.70
2018-05-01T04:07:44.050Z,17.60
2018-05-01T04:10:10.993Z,17.80
2018-05-01T04:12:38.042Z,17.80
2018-05-01T04:15:04.984Z,17.90
2018-05-01T04:17:31.906Z,17.90
2018-05-01T04:19:58.850Z,18.00
2018-05-01T04:22:25.881Z,18.10
2018-05-01T04:24:53.181Z,18.20
2018-05-01T04:27:20.121Z,18.30
2018-05-01T04:29:47.170Z,18.20
2018-05-01T04:32:14.118Z,18.10
2018-05-01T04:34:41.162Z,18.00
2018-05-01T04:37:08.104Z,18.00
2018-05-01T04:39:35.149Z,17.30
2018-05-01T04:42:02.097Z,17.30
2018-05-01T04:44:29.033Z,17.40
2018-05-01T04:46:56.286Z,17.40
2018-05-01T04:49:23.435Z,17.40
2018-05-01T04:51:50.396Z,17.20
2018-05-01T04:54:17.426Z,16.40
2018-05-01T04:56:44.385Z,16.80
2018-05-01T04:59:11.411Z,16.70
2018-05-01T05:01:38.566Z,16.60
2018-05-01T05:04:05.502Z,16.60
2018-05-01T05:06:32.514Z,16.70
2018-05-01T05:08:59.705Z,16.70
2018-05-01T05:11:26.859Z,16.80
2018-05-01T05:13:53.808Z,16.30
2018-05-01T05:16:20.750Z,16.30
2018-05-01T05:18:47.683Z,16.40
2018-05-01T05:21:14.626Z,16.40
2018-05-01T05:23:41.561Z,16.50
2018-05-01T05:26:08.514Z,16.40
2018-05-01T05:28:35.666Z,16.40
2018-05-01T05:31:03.021Z,16.60
2018-05-01T05:33:29.942Z,16.40
2018-05-01T05:35:56.886Z,16.80
2018-05-01T05:38:23.821Z,16.70
2018-05-01T05:40:50.798Z,16.40
2018-05-01T05:43:17.843Z,16.20
2018-05-01T05:45:44.774Z,16.20
2018-05-01T05:48:11.712Z,16.20
2018-05-01T05:50:38.650Z,16.60
2018-05-01T05:53:05.585Z,16.60
2018-05-01T05:55:32.774Z,16.80
2018-05-01T05:57:59.908Z,16.80
2018-05-01T06:00:26.833Z,16.60
2018-05-01T06:02:53.795Z,16.50
2018-05-01T06:05:21.062Z,16.40
2018-05-01T06:07:48.856Z,16.70
2018-05-01T06:10:15.866Z,16.70
2018-05-01T06:12:42.813Z,16.70
2018-05-01T06:15:09.985Z,16.90
2018-05-01T06:17:37.104Z,16.70
2018-05-01T06:20:04.031Z,17.20
2018-05-01T06:22:30.973Z,17.00
2018-05-01T06:24:57.917Z,17.00
2018-05-01T06:27:25.094Z,16.40
2018-05-01T06:29:52.022Z,16.90
2018-05-01T06:32:18.961Z,17.00
2018-05-01T06:34:45.890Z,16.40
2018-05-01T06:37:12.926Z,16.40
2018-05-01T06:39:40.620Z,16.70
2018-05-01T06:42:07.553Z,16.30
2018-05-01T06:44:34.478Z,16.40
2018-05-01T06:47:01.412Z,16.40
2018-05-01T06:49:28.514Z,16.50
2018-05-01T06:51:55.466Z,16.40
2018-05-01T06:54:22.406Z,16.60
2018-05-01T06:56:49.343Z,16.60
2018-05-01T06:59:16.494Z,17.10
2018-05-01T07:01:43.435Z,16.70
2018-05-01T07:04:10.504Z,16.90
2018-05-01T07:06:37.426Z,16.20
2018-05-01T07:09:04.346Z,16.50
2018-05-01T07:11:31.316Z,16.10
2018-05-01T07:13:58.305Z,16.00
2018-05-01T07:16:25.306Z,16.10
2018-05-01T07:18:52.456Z,16.40
2018-05-01T07:21:19.409Z,15.50
2018-05-01T07:23:46.654Z,15.40
2018-05-01T07:26:13.679Z,15.90
2018-05-01T07:28:40.602Z,15.20
2018-05-01T07:31:08.309Z,15.70
2018-05-01T07:33:35.355Z,15.70
2018-05-01T07:36:02.502Z,16.00
2018-05-01T07:38:29.649Z,15.80
2018-05-01T07:40:56.798Z,15.80
2018-05-01T07:43:24.599Z,15.60
2018-05-01T07:45:51.711Z,15.80
2018-05-01T07:48:18.658Z,15.70
2018-05-01T07:50:45.595Z,16.10
2018-05-01T07:53:12.539Z,16.60
2018-05-01T07:55:39.464Z,16.10
2018-05-01T07:58:06.481Z,16.50
2018-05-01T08:00:33.680Z,16.20
2018-05-01T08:03:00.632Z,16.50
2018-05-01T08:05:28.891Z,16.60
2018-05-01T08:07:56.054Z,16.50
2018-05-01T08:10:23.205Z,16.20
2018-05-01T08:12:50.145Z,16.10
2018-05-01T08:15:17.196Z,16.10
2018-05-01T08:17:44.157Z,16.50
2018-05-01T08:20:11.098Z,15.90
2018-05-01T08:22:38.037Z,15.10
2018-05-01T08:25:04.978Z,15.90
2018-05-01T08:27:31.907Z,15.40
2018-05-01T08:29:58.856Z,15.50
2018-05-01T08:32:25.792Z,16.20
2018-05-01T08:34:52.733Z,16.00
2018-05-01T08:37:19.751Z,15.60
2018-05-01T08:39:46.922Z,15.90
2018-05-01T08:42:13.941Z,15.70
2018-05-01T08:44:41.175Z,15.60
2018-05-01T08:47:08.278Z,15.30
2018-05-01T08:49:35.213Z,14.30
2018-05-01T08:52:02.151Z,13.40
2018-05-01T08:54:29.121Z,11.60
2018-05-01T08:56:56.272Z,11.90
2018-05-01T08:59:23.212Z,9.30
2018-05-01T09:01:50.259Z,8.80
2018-05-01T09:04:17.375Z,8.80
2018-05-01T09:06:44.218Z,9.60
2018-05-01T09:09:11.137Z,8.80
2018-05-01T09:11:38.083Z,8.50
2018-05-01T09:14:05.011Z,8.00
2018-05-01T09:16:31.941Z,8.40
2018-05-01T09:18:59.877Z,8.80
2018-05-01T09:21:26.814Z,8.20
2018-05-01T09:23:53.745Z,7.40
2018-05-01T09:26:21.442Z,8.00
2018-05-01T09:28:48.385Z,8.00
2018-05-01T09:31:15.446Z,8.20
2018-05-01T09:33:42.618Z,6.80
2018-05-01T09:36:09.562Z,7.00
2018-05-01T09:38:36.500Z,7.00
2018-05-01T09:41:03.739Z,6.50
2018-05-01T09:43:30.673Z,6.40
2018-05-01T09:45:57.612Z,7.00
2018-05-01T09:48:25.000Z,6.40
2018-05-01T09:50:51.918Z,5.40
2018-05-01T09:53:19.340Z,3.50
2018-05-01T09:55:47.021Z,5.40
2018-05-01T09:58:14.606Z,4.60
2018-05-01T10:00:42.046Z,4.10
2018-05-01T10:03:09.472Z,6.30
2018-05-01T10:05:37.061Z,4.60
2018-05-01T10:08:05.121Z,3.60
2018-05-01T10:10:32.546Z,3.70
2018-05-01T10:12:59.998Z,3.50
2018-05-01T10:15:27.417Z,3.40
2018-05-01T10:17:54.947Z,3.90
2018-05-01T10:20:22.366Z,3.40
2018-05-01T10:22:49.788Z,3.30
2018-05-01T10:25:17.231Z,2.90
2018-05-01T10:27:44.653Z,2.50
2018-05-01T10:30:12.069Z,2.00
2018-05-01T10:32:39.689Z,2.20
2018-05-01T10:35:07.118Z,2.90
2018-05-01T10:37:34.600Z,3.10
2018-05-01T10:40:02.077Z,2.20
2018-05-01T10:42:29.714Z,1.10
2018-05-01T10:44:57.315Z,1.00
2018-05-01T10:47:24.746Z,1.00
2018-05-01T10:49:52.170Z,1.00
2018-05-01T10:52:19.597Z,1.00
2018-05-01T10:54:47.893Z,1.00
2018-05-01T10:57:15.398Z,1.00
2018-05-01T10:59:42.946Z,1.00
2018-05-01T11:02:10.711Z,1.00
2018-05-01T11:04:38.139Z,1.50
2018-05-01T11:07:05.593Z,1.00
2018-05-01T11:09:33.073Z,1.00
2018-05-01T11:12:00.534Z,1.00
2018-05-01T11:14:27.927Z,1.00
2018-05-01T11:16:56.025Z,1.00
2018-05-01T11:19:23.626Z,1.00
2018-05-01T11:21:52.580Z,1.00
2018-05-01T11:24:20.043Z,1.00
2018-05-01T11:26:47.526Z,1.00
2018-05-01T11:29:16.767Z,1.00
2018-05-01T11:31:44.376Z,1.00
2018-05-01T11:34:11.928Z,1.00
2018-05-01T11:36:39.380Z,1.00
2018-05-01T11:39:06.817Z,1.00
2018-05-01T11:41:34.234Z,1.00
2018-05-01T11:44:01.657Z,1.00
2018-05-01T11:46:30.054Z,1.00
2018-05-01T11:48:57.619Z,1.00
2018-05-01T11:51:25.213Z,1.00
2018-05-01T11:53:53.438Z,1.00
2018-05-01T11:56:20.842Z,1.00
2018-05-01T11:58:48.347Z,1.00
2018-05-01T12:01:15.752Z,1.00
2018-05-01T12:03:43.174Z,1.00
2018-05-01T12:06:11.628Z,1.00
2018-05-01T12:08:39.091Z,1.00
2018-05-01T12:11:06.532Z,1.00
2018-05-01T12:13:33.958Z,1.00
2018-05-01T12:16:01.465Z,1.00
2018-05-01T12:18:28.909Z,1.00
2018-05-01T12:20:56.357Z,1.00
2018-05-01T12:23:23.793Z,1.00
2018-05-01T12:25:51.334Z,1.00
2018-05-01T12:28:18.936Z,1.00
2018-05-01T12:30:46.357Z,1.00
2018-05-01T12:33:14.609Z,1.00
2018-05-01T12:35:42.331Z,1.00
2018-05-01T12:38:09.769Z,1.00
2018-05-01T12:40:37.177Z,1.00
2018-05-01T12:43:04.702Z,1.00
2018-05-01T12:45:32.155Z,1.00
2018-05-01T12:47:59.614Z,1.00
2018-05-01T12:50:27.019Z,1.00
2018-05-01T12:52:54.459Z,1.00
2018-05-01T12:55:21.881Z,1.00
2018-05-01T12:57:49.447Z,1.00
2018-05-01T13:00:16.899Z,1.00
2018-05-01T13:02:44.304Z,1.00
2018-05-01T13:05:12.503Z,1.00
2018-05-01T13:07:40.690Z,1.00
2018-05-01T13:10:08.090Z,1.00
2018-05-01T13:12:35.661Z,1.00
2018-05-01T13:15:03.021Z,1.00
2018-05-01T13:17:31.246Z,1.00
2018-05-01T13:19:58.679Z,1.00
2018-05-01T13:22:26.092Z,1.00
2018-05-01T13:24:53.517Z,1.00
2018-05-01T13:27:21.060Z,1.00
2018-05-01T13:29:48.430Z,1.00
2018-05-01T13:32:15.918Z,1.00
2018-05-01T13:34:43.335Z,1.00
2018-05-01T13:37:10.886Z,1.00
2018-05-01T13:39:38.343Z,1.00
2018-05-01T13:42:05.794Z,1.00
2018-05-01T13:44:33.223Z,1.00
2018-05-01T13:47:00.917Z,1.00
2018-05-01T13:49:28.410Z,1.00
2018-05-01T13:51:55.817Z,1.00
2018-05-01T13:54:24.015Z,1.00
2018-05-01T13:56:51.454Z,1.00
2018-05-01T13:59:18.858Z,1.00
2018-05-01T14:01:46.371Z,1.00
2018-05-01T14:04:13.826Z,1.00
2018-05-01T14:06:41.543Z,1.00
2018-05-01T14:09:09.859Z,1.00
2018-05-01T14:11:37.319Z,1.00
2018-05-01T14:14:04.881Z,1.00
2018-05-01T14:16:32.357Z,1.00
2018-05-01T14:18:59.758Z,1.00
2018-05-01T14:21:27.160Z,1.00
2018-05-01T14:23:54.586Z,1.00
2018-05-01T14:26:22.149Z,1.00
2018-05-01T14:28:50.412Z,1.00
2018-05-01T14:31:17.895Z,1.00
2018-05-01T14:33:45.460Z,1.00
2018-05-01T14:36:12.903Z,1.00
2018-05-01T14:38:40.330Z,1.00
2018-05-01T14:41:07.739Z,1.00
2018-05-01T14:43:35.278Z,1.00
2018-05-01T14:46:02.690Z,1.00
2018-05-01T14:48:30.121Z,1.00
2018-05-01T14:50:57.541Z,1.00
2018-05-01T14:53:25.110Z,1.00
2018-05-01T14:55:52.561Z,1.00
2018-05-01T14:58:20.030Z,1.00
2018-05-01T15:00:47.448Z,1.00
2018-05-01T15:03:14.919Z,1.00
2018-05-01T15:05:42.338Z,1.00
2018-05-01T15:08:09.834Z,1.00
2018-05-01T15:10:37.254Z,1.00
2018-05-01T15:13:04.670Z,1.00
2018-05-01T15:15:32.092Z,1.00
2018-05-01T15:17:59.540Z,1.00
2018-05-01T15:20:27.721Z,1.00
2018-05-01T15:22:55.184Z,1.00
2018-05-01T15:25:22.606Z,1.00
2018-05-01T15:27:50.095Z,1.00
2018-05-01T15:30:17.572Z,1.00
2018-05-01T15:32:45.015Z,1.00
2018-05-01T15:35:12.466Z,1.00
2018-05-01T15:37:39.941Z,1.00
2018-05-01T15:40:07.292Z,1.00
2018-05-01T15:42:34.765Z,1.00
2018-05-01T15:45:02.189Z,1.00
2018-05-01T15:47:29.650Z,1.00
2018-05-01T15:49:57.077Z,1.00
2018-05-01T15:52:24.590Z,1.00
2018-05-01T15:54:52.042Z,1.00
2018-05-01T15:57:19.453Z,1.00
2018-05-01T15:59:47.030Z,1.00
2018-05-01T16:02:14.452Z,1.00
2018-05-01T16:04:41.938Z,1.00
2018-05-01T16:07:09.401Z,1.00
2018-05-01T16:09:36.851Z,1.00
2018-05-01T16:12:04.306Z,1.00
2018-05-01T16:14:31.731Z,1.00
2018-05-01T16:16:59.150Z,1.00
2018-05-01T16:19:26.590Z,1.00
2018-05-01T16:21:54.032Z,1.00
2018-05-01T16:24:21.487Z,1.00
2018-05-01T16:26:48.917Z,1.00
2018-05-01T16:29:16.512Z,1.00
2018-05-01T16:31:43.956Z,1.00
2018-05-01T16:34:11.386Z,1.00
2018-05-01T16:36:38.819Z,1.00
2018-05-01T16:39:06.255Z,1.00
2018-05-01T16:41:33.663Z,1.00
2018-05-01T16:44:01.154Z,1.00
2018-05-01T16:46:28.809Z,1.00
2018-05-01T16:48:56.349Z,1.00
2018-05-01T16:51:23.898Z,1.00
2018-05-01T16:53:51.310Z,1.00
2018-05-01T16:56:18.834Z,1.00
2018-05-01T16:58:46.241Z,1.00
2018-05-01T17:01:13.701Z,1.00
2018-05-01T17:03:41.098Z,1.00
2018-05-01T17:06:08.639Z,1.00
2018-05-01T17:08:36.053Z,1.00
2018-05-01T17:11:03.562Z,1.00
2018-05-01T17:13:30.969Z,1.00
2018-05-01T17:15:58.411Z,1.00
2018-05-01T17:18:25.912Z,1.00
2018-05-01T17:20:53.352Z,1.00
2018-05-01T17:23:20.786Z,1.00
2018-05-01T17:25:48.202Z,1.00
2018-05-01T17:28:15.610Z,1.00
2018-05-01T17:30:43.808Z,1.00
2018-05-01T17:33:11.231Z,1.00
2018-05-01T17:35:38.750Z,1.00
2018-05-01T17:38:06.167Z,1.00
2018-05-01T17:40:33.586Z,1.00
2018-05-01T17:43:01.110Z,1.00
2018-05-01T17:45:28.529Z,1.00
2018-05-01T17:47:55.941Z,1.00
2018-05-01T17:50:23.374Z,1.00
2018-05-01T17:52:50.935Z,1.00
2018-05-01T17:55:19.309Z,1.00
2018-05-01T17:57:46.722Z,1.00
2018-05-01T18:00:14.590Z,1.00
2018-05-01T18:02:43.531Z,1.00
2018-05-01T18:05:10.973Z,1.00
2018-05-01T18:07:38.438Z,1.00
2018-05-01T18:10:05.860Z,1.00
2018-05-01T18:12:33.285Z,1.00
2018-05-01T18:15:00.714Z,1.00
2018-05-01T18:17:28.193Z,1.00
2018-05-01T18:19:55.722Z,1.00
2018-05-01T18:22:23.136Z,1.00
2018-05-01T18:24:50.637Z,1.00
2018-05-01T18:27:18.093Z,1.00
2018-05-01T18:29:45.554Z,1.00
2018-05-01T18:32:12.985Z,1.00
2018-05-01T18:34:40.405Z,1.00
2018-05-01T18:37:07.924Z,1.00
2018-05-01T18:39:35.372Z,1.00
2018-05-01T18:42:02.841Z,1.00
2018-05-01T18:44:30.601Z,1.00
2018-05-01T18:46:58.042Z,1.00
2018-05-01T18:49:25.457Z,1.00
2018-05-01T18:51:52.885Z,1.00
2018-05-01T18:54:20.309Z,1.00
2018-05-01T18:56:47.781Z,1.00
2018-05-01T18:59:15.228Z,1.00
2018-05-01T19:01:42.786Z,1.00
2018-05-01T19:04:10.206Z,1.00
2018-05-01T19:06:37.690Z,1.00
2018-05-01T19:09:06.073Z,1.40
2018-05-01T19:11:33.501Z,1.20
2018-05-01T19:14:01.837Z,1.30
2018-05-01T19:16:29.241Z,1.40
2018-05-01T19:18:56.658Z,2.10
2018-05-01T19:21:24.301Z,1.80
2018-05-01T19:23:51.719Z,1.70
2018-05-01T19:26:19.186Z,1.90
2018-05-01T19:28:46.646Z,2.40
2018-05-01T19:31:14.079Z,2.40
2018-05-01T19:33:41.488Z,3.20
2018-05-01T19:36:09.007Z,3.20
2018-05-01T19:38:36.483Z,3.00
2018-05-01T19:41:04.753Z,3.40
2018-05-01T19:43:32.171Z,3.30
2018-05-01T19:46:00.684Z,4.60
2018-05-01T19:48:28.097Z,4.60
2018-05-01T19:50:55.600Z,5.20
2018-05-01T19:53:22.946Z,6.20
2018-05-01T19:55:50.424Z,6.10
2018-05-01T19:58:17.970Z,5.80
2018-05-01T20:00:45.433Z,6.10
2018-05-01T20:03:12.997Z,6.60
2018-05-01T20:05:41.120Z,7.70
2018-05-01T20:08:08.605Z,7.50
2018-05-01T20:10:36.160Z,7.80
2018-05-01T20:13:03.762Z,7.90
2018-05-01T20:15:32.590Z,8.00
2018-05-01T20:18:01.899Z,7.90
2018-05-01T20:20:30.366Z,8.70
2018-05-01T20:22:58.022Z,8.90
2018-05-01T20:25:25.445Z,9.30
2018-05-01T20:27:54.947Z,9.70
2018-05-01T20:30:23.236Z,10.60
2018-05-01T20:32:50.619Z,10.00
2018-05-01T20:35:18.035Z,9.50
2018-05-01T20:37:45.464Z,9.80
2018-05-01T20:40:12.978Z,9.30
2018-05-01T20:42:40.406Z,9.10
2018-05-01T20:45:07.894Z,8.60
2018-05-01T20:47:35.354Z,8.70
2018-05-01T20:50:02.770Z,9.00
2018-05-01T20:52:30.201Z,8.60
2018-05-01T20:54:57.728Z,8.00
2018-05-01T20:57:26.272Z,7.80
2018-05-01T20:59:55.106Z,7.80
2018-05-01T21:02:22.721Z,7.80
2018-05-01T21:04:50.282Z,8.00
2018-05-01T21:07:17.709Z,8.10
2018-05-01T21:09:45.134Z,8.20
2018-05-01T21:12:12.677Z,8.60
2018-05-01T21:14:40.101Z,8.80
2018-05-01T21:17:07.533Z,8.80
2018-05-01T21:19:34.952Z,8.80
2018-05-01T21:22:02.512Z,9.50
2018-05-01T21:24:29.978Z,10.00
2018-05-01T21:26:57.444Z,11.00
2018-05-01T21:29:25.041Z,11.70
2018-05-01T21:31:53.238Z,11.00
2018-05-01T21:34:21.777Z,10.90
2018-05-01T21:36:50.009Z,10.40
2018-05-01T21:39:17.461Z,9.90
2018-05-01T21:41:44.920Z,9.60
2018-05-01T21:44:12.373Z,9.40
2018-05-01T21:46:39.798Z,9.50
2018-05-01T21:49:07.288Z,10.20
2018-05-01T21:51:35.743Z,10.10
2018-05-01T21:54:03.146Z,11.10
2018-05-01T21:56:30.769Z,12.50
2018-05-01T21:58:58.284Z,12.50
2018-05-01T22:01:25.789Z,13.60
2018-05-01T22:03:53.250Z,13.30
2018-05-01T22:06:20.682Z,13.60
2018-05-01T22:08:48.175Z,13.90
2018-05-01T22:11:15.644Z,12.60
2018-05-01T22:13:43.075Z,12.40
2018-05-01T22:16:10.533Z,12.50
2018-05-01T22:18:37.989Z,12.50
2018-05-01T22:21:05.414Z,12.50
2018-05-01T22:23:32.847Z,13.20
2018-05-01T22:26:01.183Z,12.90
2018-05-01T22:28:28.738Z,12.90
2018-05-01T22:30:56.193Z,14.30
2018-05-01T22:33:23.646Z,14.50
2018-05-01T22:35:51.061Z,14.60
2018-05-01T22:38:18.535Z,14.60
2018-05-01T22:40:46.176Z,14.20
2018-05-01T22:43:13.445Z,14.80
2018-05-01T22:45:40.865Z,15.60
2018-05-01T22:48:08.384Z,15.80
2018-05-01T22:50:35.801Z,16.70
2018-05-01T22:53:03.240Z,16.80
2018-05-01T22:55:30.762Z,16.90
2018-05-01T22:57:58.181Z,16.80
2018-05-01T23:00:25.592Z,17.50
2018-05-01T23:02:53.122Z,17.50
2018-05-01T23:05:20.542Z,17.30
2018-05-01T23:07:47.972Z,17.10
2018-05-01T23:10:15.458Z,17.10
2018-05-01T23:12:42.882Z,17.30
2018-05-01T23:15:10.409Z,17.40
2018-05-01T23:17:37.821Z,17.40
2018-05-01T23:20:05.255Z,17.30
2018-05-01T23:22:32.774Z,17.60
2018-05-01T23:25:00.195Z,17.30
2018-05-01T23:27:27.624Z,17.80
2018-05-01T23:29:55.917Z,18.20
2018-05-01T23:32:24.098Z,18.20
2018-05-01T23:34:51.626Z,18.20
2018-05-01T23:37:19.041Z,18.90
2018-05-01T23:39:46.468Z,18.80
2018-05-01T23:42:13.987Z,19.40
2018-05-01T23:44:41.725Z,18.80
2018-05-01T23:47:09.154Z,17.70
2018-05-01T23:49:36.594Z,18.50
2018-05-01T23:52:04.094Z,19.60
2018-05-01T23:54:31.723Z,18.70
2018-05-01T23:56:59.372Z,18.70
2018-05-01T23:59:26.766Z,18.90
